Time;durP1;ratioP1;P1;durP2;ratioP2;P2;SDS_P1;SDS_P2;PMS_P1;PMS_P2;Temp;Humidity;BMP_temperature;BMP_pressure;BME280_temperature;BME280_humidity;BME280_pressure;Samples;Min_cycle;Max_cycle;Signal;HPM_P1;HPM_P2
2022/12/14 00:00:32;;;;;;;17.25;12.55;;;10.00;93.90;;;;;;5113171;28;20024;-85
2022/12/14 00:02:57;;;;;;;15.55;12.27;;;10.00;94.20;;;;;;5111604;28;20023;-84
2022/12/14 00:05:23;;;;;;;14.45;11.50;;;10.00;94.00;;;;;;5113501;28;20113;-85
2022/12/14 00:07:49;;;;;;;14.70;11.70;;;10.00;94.00;;;;;;5112217;28;20048;-83
2022/12/14 00:10:14;;;;;;;14.35;11.43;;;10.10;94.20;;;;;;5113492;28;20385;-84
2022/12/14 00:12:40;;;;;;;17.00;11.30;;;10.20;94.10;;;;;;5129034;28;20117;-85
2022/12/14 00:15:07;;;;;;;14.98;11.63;;;10.20;94.10;;;;;;5113120;28;20486;-85
2022/12/14 00:17:33;;;;;;;15.48;10.93;;;10.20;93.70;;;;;;5113737;28;20089;-84
2022/12/14 00:19:59;;;;;;;13.73;11.00;;;10.10;93.90;;;;;;5129020;28;20027;-85
2022/12/14 00:22:25;;;;;;;13.50;11.13;;;10.10;94.00;;;;;;5111713;28;20024;-85
2022/12/14 00:24:51;;;;;;;14.65;11.60;;;10.10;93.20;;;;;;5112948;28;20095;-85
2022/12/14 00:27:17;;;;;;;14.07;11.00;;;10.10;94.10;;;;;;5128634;27;20126;-85
2022/12/14 00:29:43;;;;;;;13.07;10.93;;;10.10;94.20;;;;;;5111418;28;20069;-85
2022/12/14 00:32:09;;;;;;;12.73;11.00;;;10.10;94.10;;;;;;5112268;28;20055;-84
2022/12/14 00:34:35;;;;;;;12.20;10.52;;;10.20;94.10;;;;;;5111780;28;20291;-85
2022/12/14 00:37:01;;;;;;;13.70;11.20;;;10.20;94.10;;;;;;5128809;28;20122;-85
2022/12/14 00:39:26;;;;;;;12.85;10.55;;;10.30;94.10;;;;;;5111922;28;20019;-86
2022/12/14 00:41:52;;;;;;;13.20;10.88;;;10.30;94.10;;;;;;5113022;28;20085;-85
2022/12/14 00:44:18;;;;;;;13.20;11.00;;;10.30;94.00;;;;;;5115556;28;20023;-86
2022/12/14 00:46:43;;;;;;;13.00;10.38;;;10.40;94.10;;;;;;5115417;28;20020;-85
2022/12/14 00:49:10;;;;;;;15.70;11.57;;;10.40;94.00;;;;;;5116573;28;20027;-83
2022/12/14 00:51:35;;;;;;;13.43;11.07;;;10.40;94.20;;;;;;5115248;28;20122;-85
2022/12/14 00:54:01;;;;;;;14.43;10.75;;;10.40;94.10;;;;;;5117451;28;20093;-85
2022/12/14 00:56:26;;;;;;;12.70;10.40;;;10.40;94.20;;;;;;5118415;28;20036;-83
2022/12/14 00:58:53;;;;;;;15.43;10.68;;;10.50;94.30;;;;;;5134531;28;20087;-81
2022/12/14 01:01:20;;;;;;;13.02;10.52;;;10.50;94.20;;;;;;5133964;28;20015;-82
2022/12/14 01:03:46;;;;;;;12.18;10.02;;;10.50;94.20;;;;;;5131488;28;20058;-83
2022/12/14 01:06:15;;;;;;;14.38;10.63;;;10.50;94.30;;;;;;5117366;28;20055;-84
2022/12/14 01:08:40;;;;;;;14.13;10.68;;;10.50;94.10;;;;;;5116395;28;20498;-84
2022/12/14 01:11:08;;;;;;;11.52;10.02;;;10.50;94.10;;;;;;5115848;28;20024;-84
2022/12/14 01:13:35;;;;;;;15.00;10.85;;;10.40;94.10;;;;;;5115961;28;20035;-84
2022/12/14 01:16:07;;;;;;;13.75;10.18;;;10.50;94.40;;;;;;5115974;28;20042;-85
2022/12/14 01:18:34;;;;;;;14.07;10.25;;;10.40;94.20;;;;;;5115688;28;20130;-84
2022/12/14 01:21:18;;;;;;;12.27;10.63;;;10.50;94.30;;;;;;5115632;28;20024;-84
2022/12/14 01:23:45;;;;;;;;;;;10.50;94.20;;;;;;5115945;28;20419;-84
2022/12/14 01:26:15;;;;;;;12.45;10.77;;;10.50;94.20;;;;;;5115749;28;19904;-84
2022/12/14 01:28:41;;;;;;;12.55;10.60;;;10.50;94.10;;;;;;5114301;28;20119;-84
2022/12/14 01:31:12;;;;;;;14.07;10.40;;;10.40;94.20;;;;;;5114091;28;20028;-69
2022/12/14 01:33:38;;;;;;;12.93;10.80;;;10.50;94.20;;;;;;5114118;28;20023;-84
2022/12/14 01:36:06;;;;;;;11.60;10.25;;;10.50;94.20;;;;;;5115989;28;20115;-85
2022/12/14 01:38:31;;;;;;;13.52;9.55;;;10.50;94.40;;;;;;5114490;28;20360;-84
2022/12/14 01:40:58;;;;;;;12.13;9.82;;;10.50;94.10;;;;;;5115903;28;20103;-85
2022/12/14 01:43:24;;;;;;;13.23;10.27;;;10.50;94.30;;;;;;5126782;28;20030;-84
2022/12/14 01:45:54;;;;;;;12.77;10.25;;;10.50;94.10;;;;;;5134514;28;20028;-84
2022/12/14 01:48:20;;;;;;;12.30;10.15;;;10.50;94.30;;;;;;5132103;28;20047;-85
2022/12/14 01:50:46;;;;;;;12.27;10.45;;;10.60;94.30;;;;;;5118702;28;20096;-84
2022/12/14 01:53:20;;;;;;;12.77;10.50;;;10.60;94.20;;;;;;5115011;28;20558;-83
2022/12/14 01:55:51;;;;;;;12.52;10.05;;;10.50;94.30;;;;;;5113636;28;20620;-85
2022/12/14 01:58:20;;;;;;;13.15;10.55;;;10.50;94.40;;;;;;5115067;28;20023;-85
2022/12/14 02:00:46;;;;;;;12.45;10.48;;;10.50;94.30;;;;;;5113654;28;20046;-85
2022/12/14 02:03:16;;;;;;;15.30;10.07;;;10.60;94.30;;;;;;5114804;28;20526;-84
2022/12/14 02:05:56;;;;;;;12.20;10.00;;;10.60;93.10;;;;;;5114593;28;20012;-82
2022/12/14 02:08:23;;;;;;;13.27;10.05;;;10.60;94.40;;;;;;5114770;28;20019;-85
2022/12/14 02:10:50;;;;;;;13.65;11.13;;;10.60;94.40;;;;;;5113509;28;20395;-86
2022/12/14 02:13:24;;;;;;;12.45;9.48;;;10.50;94.40;;;;;;5114667;28;20034;-84
2022/12/14 02:15:50;;;;;;;13.00;10.20;;;10.50;94.20;;;;;;5114426;28;20023;-85
2022/12/14 02:18:27;;;;;;;15.07;10.25;;;10.50;94.20;;;;;;5114688;28;20020;-85
2022/12/14 02:21:08;;;;;;;12.60;9.63;;;10.50;94.40;;;;;;5113433;28;20038;-87
2022/12/14 02:23:46;;;;;;;12.70;10.48;;;10.50;93.10;;;;;;5115093;28;20560;-86
2022/12/14 02:26:30;;;;;;;11.60;9.75;;;10.50;93.20;;;;;;5114492;28;20023;-85
2022/12/14 02:29:12;;;;;;;12.88;10.18;;;10.50;93.10;;;;;;5113257;28;20040;-85
2022/12/14 02:32:15;;;;;;;12.07;9.95;;;10.60;94.40;;;;;;5119384;28;20020;-84
2022/12/14 02:35:09;;;;;;;13.15;10.82;;;10.60;93.00;;;;;;5115842;28;20034;-84
2022/12/14 02:38:04;;;;;;;15.10;10.65;;;10.70;93.10;;;;;;5118779;28;20032;-86
2022/12/14 02:40:38;;;;;;;15.40;10.95;;;10.60;93.10;;;;;;5117549;28;20023;-84
2022/12/14 02:43:13;;;;;;;13.38;10.43;;;10.70;94.40;;;;;;5115610;28;20131;-85
2022/12/14 02:45:53;;;;;;;14.80;10.27;;;10.70;94.30;;;;;;5116518;28;20043;-84
2022/12/14 02:48:24;;;;;;;12.38;10.23;;;10.80;93.30;;;;;;5115360;28;20016;-83
2022/12/14 02:51:13;;;;;;;12.88;10.73;;;10.80;94.50;;;;;;5115596;28;20164;-83
2022/12/14 02:53:45;;;;;;;13.57;10.45;;;10.80;93.30;;;;;;5114166;28;20047;-85
2022/12/14 02:56:18;;;;;;;13.48;10.68;;;10.70;93.20;;;;;;5115096;28;20170;-85
2022/12/14 02:58:49;;;;;;;13.90;11.60;;;10.80;94.50;;;;;;5115208;28;20102;-85
2022/12/14 03:01:23;;;;;;;13.70;11.20;;;10.70;94.50;;;;;;5113228;28;20062;-85
2022/12/14 03:03:50;;;;;;;15.38;10.82;;;10.80;94.70;;;;;;5114147;28;20023;-85
2022/12/14 03:06:25;;;;;;;16.17;11.60;;;10.80;94.50;;;;;;5112731;28;20046;-85
2022/12/14 03:08:56;;;;;;;13.85;10.95;;;10.80;94.60;;;;;;5114380;28;20118;-85
2022/12/14 03:11:46;;;;;;;13.52;11.50;;;10.80;94.50;;;;;;5113626;28;20027;-84
2022/12/14 03:14:19;;;;;;;14.32;10.77;;;10.80;94.70;;;;;;5110898;28;20074;-84
2022/12/14 03:16:50;;;;;;;10.23;8.30;;;10.80;94.60;;;;;;5113976;28;20035;-84
2022/12/14 03:19:31;;;;;;;13.02;10.88;;;10.80;94.60;;;;;;5126113;28;20268;-82
2022/12/14 03:22:00;;;;;;;13.23;11.27;;;10.80;94.60;;;;;;5123098;28;20024;-84
2022/12/14 03:24:33;;;;;;;13.05;10.95;;;10.80;94.70;;;;;;5132840;28;20043;-82
2022/12/14 03:27:06;;;;;;;14.38;11.20;;;10.80;94.70;;;;;;5133845;28;20095;-81
2022/12/14 03:29:39;;;;;;;11.15;8.57;;;10.80;94.70;;;;;;5125695;28;20011;-84
2022/12/14 03:32:09;;;;;;;15.60;11.97;;;10.80;94.70;;;;;;5117830;28;20034;-83
2022/12/14 03:34:45;;;;;;;14.10;11.75;;;10.80;94.70;;;;;;5114596;28;20364;-83
2022/12/14 03:37:20;;;;;;;15.02;12.38;;;10.80;93.70;;;;;;5112046;28;20120;-82
2022/12/14 03:39:46;;;;;;;13.88;12.00;;;10.80;93.80;;;;;;5112128;28;20114;-81
2022/12/14 03:42:24;;;;;;;14.43;11.65;;;10.80;94.70;;;;;;5113312;28;20027;-83
2022/12/14 03:45:08;;;;;;;13.82;11.45;;;10.90;93.80;;;;;;5112177;28;20027;-83
2022/12/14 03:48:16;;;;;;;14.43;12.13;;;10.90;94.60;;;;;;5112949;28;20019;-83
2022/12/14 03:50:52;;;;;;;12.77;10.57;;;10.90;93.80;;;;;;5111776;28;20104;-83
2022/12/14 03:53:32;;;;;;;14.38;11.15;;;11.00;94.90;;;;;;5111540;28;20043;-83
2022/12/14 03:56:26;;;;;;;14.65;11.98;;;11.00;94.90;;;;;;5113118;28;20024;-82
2022/12/14 03:58:52;;;;;;;14.82;11.38;;;10.90;93.80;;;;;;5112057;28;20127;-83
2022/12/14 04:01:29;;;;;;;15.45;12.43;;;10.90;94.70;;;;;;5111395;28;20131;-84
2022/12/14 04:04:01;;;;;;;14.85;11.90;;;10.80;93.80;;;;;;5113289;28;20045;-82
2022/12/14 04:06:45;;;;;;;16.50;12.18;;;10.80;95.00;;;;;;5113856;28;20019;-84
2022/12/14 04:09:21;;;;;;;15.32;12.70;;;10.80;93.90;;;;;;5112088;28;20088;-84
2022/12/14 04:20:30;;;;;;;15.88;12.80;;;10.70;95.10;;;;;;5117283;28;20169;-83
2022/12/14 04:23:06;;;;;;;;;;;10.70;95.10;;;;;;5117765;28;20027;-84
2022/12/14 04:31:15;;;;;;;16.85;13.55;;;10.80;95.20;;;;;;5116853;28;20038;-83
2022/12/14 04:33:48;;;;;;;15.60;12.40;;;10.90;95.50;;;;;;5116795;28;20072;-83
2022/12/14 04:36:34;;;;;;;15.35;13.32;;;10.90;95.20;;;;;;5115228;28;20031;-82
2022/12/14 04:39:05;;;;;;;17.10;13.98;;;11.00;94.20;;;;;;5121403;28;20098;-84
2022/12/14 04:41:37;;;;;;;15.88;12.70;;;10.90;95.30;;;;;;5115931;28;20024;-85
2022/12/14 04:44:09;;;;;;;16.60;13.57;;;11.00;95.40;;;;;;5116246;28;20032;-83
2022/12/14 04:46:38;;;;;;;16.15;12.98;;;11.00;95.30;;;;;;5115191;28;20027;-83
2022/12/14 04:49:19;;;;;;;17.02;13.38;;;11.00;95.40;;;;;;5114724;28;20024;-83
2022/12/14 04:52:06;;;;;;;18.98;13.82;;;11.00;95.50;;;;;;5115088;28;20399;-83
2022/12/14 04:54:57;;;;;;;15.73;13.65;;;11.00;95.50;;;;;;5114859;28;20202;-83
2022/12/14 04:58:00;;;;;;;15.80;13.70;;;11.00;95.60;;;;;;5114511;28;20043;-85
2022/12/14 05:00:31;;;;;;;16.35;14.13;;;11.00;94.60;;;;;;5114904;28;20066;-83
2022/12/14 05:03:02;;;;;;;17.45;14.02;;;11.00;95.50;;;;;;5114782;28;20027;-82
2022/12/14 05:05:40;;;;;;;20.23;14.73;;;11.10;95.60;;;;;;5114506;28;20050;-82
2022/12/14 05:08:33;;;;;;;16.02;13.82;;;11.00;94.60;;;;;;5114508;28;20059;-83
2022/12/14 05:11:30;;;;;;;17.02;14.48;;;11.00;94.70;;;;;;5115781;28;20421;-85
2022/12/14 05:13:56;;;;;;;16.27;13.55;;;11.00;94.70;;;;;;5094027;27;20104;-83
2022/12/14 05:16:23;;;;;;;18.05;14.60;;;11.00;95.70;;;;;;5116439;28;20039;-84
2022/12/14 05:18:50;;;;;;;17.00;14.60;;;11.00;95.80;;;;;;5115462;28;20019;-84
2022/12/14 05:24:02;;;;;;;16.60;14.13;;;11.10;95.00;;;;;;5116318;28;20059;-83
2022/12/14 05:26:28;;;;;;;16.60;14.02;;;11.00;95.80;;;;;;5116365;28;20429;-83
2022/12/14 05:28:55;;;;;;;18.52;14.70;;;11.00;95.80;;;;;;5116471;28;20478;-83
2022/12/14 05:31:21;;;;;;;17.85;14.20;;;11.00;95.70;;;;;;5117110;28;20024;-85
2022/12/14 05:33:47;;;;;;;17.90;14.77;;;11.00;95.90;;;;;;5116080;28;20028;-83
2022/12/14 05:36:13;;;;;;;17.40;14.20;;;11.10;95.90;;;;;;5118569;28;20028;-83
2022/12/14 05:38:40;;;;;;;20.75;17.35;;;11.10;95.90;;;;;;5116828;28;20063;-84
2022/12/14 05:41:05;;;;;;;18.38;15.07;;;11.10;95.90;;;;;;5134117;27;20031;-84
2022/12/14 05:43:31;;;;;;;16.85;14.25;;;11.10;95.90;;;;;;5128703;28;20020;-84
2022/12/14 05:46:02;;;;;;;17.15;14.20;;;11.10;95.90;;;;;;5135589;28;20008;-82
2022/12/14 05:48:28;;;;;;;19.23;14.15;;;11.10;95.30;;;;;;5134627;28;20087;-81
2022/12/14 05:50:54;;;;;;;16.25;13.95;;;11.20;96.20;;;;;;5136777;28;20020;-80
2022/12/14 05:53:20;;;;;;;16.85;13.60;;;11.20;96.10;;;;;;5124648;28;20449;-84
2022/12/14 05:55:50;;;;;;;15.73;13.00;;;11.20;96.00;;;;;;5116716;28;20030;-84
2022/12/14 05:58:16;;;;;;;17.02;12.60;;;11.20;96.20;;;;;;5128437;27;20061;-82
2022/12/14 06:00:42;;;;;;;16.27;12.20;;;11.30;96.10;;;;;;5126579;28;20329;-82
2022/12/14 06:03:09;;;;;;;16.88;13.60;;;11.30;96.10;;;;;;5121676;28;20027;-84
2022/12/14 06:05:35;;;;;;;13.68;11.38;;;11.30;96.30;;;;;;5118457;28;20027;-85
2022/12/14 06:08:00;;;;;;;15.80;11.10;;;11.30;96.10;;;;;;5120275;28;20356;-83
2022/12/14 06:10:26;;;;;;;17.30;11.20;;;11.40;96.20;;;;;;5115851;28;20024;-84
2022/12/14 06:12:52;;;;;;;13.32;10.27;;;11.40;96.10;;;;;;5116131;28;20024;-84
2022/12/14 06:15:18;;;;;;;11.68;9.10;;;11.40;96.30;;;;;;5114650;28;20020;-85
2022/12/14 06:17:44;;;;;;;14.55;9.98;;;11.50;96.20;;;;;;5113834;28;20046;-82
2022/12/14 06:20:12;;;;;;;11.73;9.02;;;11.50;96.40;;;;;;5114035;28;20020;-83
2022/12/14 06:22:37;;;;;;;12.95;8.43;;;11.60;96.40;;;;;;5113145;28;20027;-84
2022/12/14 06:25:03;;;;;;;9.77;7.80;;;11.60;96.40;;;;;;5114739;28;20049;-85
2022/12/14 06:27:29;;;;;;;9.60;7.65;;;11.70;96.30;;;;;;5113294;28;20028;-83
2022/12/14 06:29:55;;;;;;;9.68;6.32;;;11.70;96.40;;;;;;5114758;28;20047;-84
2022/12/14 06:32:21;;;;;;;9.65;6.28;;;11.80;96.40;;;;;;5113423;28;20062;-84
2022/12/14 06:34:46;;;;;;;8.38;5.75;;;11.80;96.50;;;;;;5113325;28;20083;-84
2022/12/14 06:37:12;;;;;;;9.23;5.75;;;11.80;96.40;;;;;;5114071;28;20074;-83
2022/12/14 06:39:38;;;;;;;8.63;5.30;;;11.80;96.50;;;;;;5114098;28;20016;-83
2022/12/14 06:42:05;;;;;;;8.45;5.03;;;11.90;96.50;;;;;;5120853;28;20502;-82
2022/12/14 06:44:31;;;;;;;6.65;4.45;;;11.90;96.70;;;;;;5114018;28;20020;-85
2022/12/14 06:46:56;;;;;;;7.75;5.35;;;11.90;96.60;;;;;;5112553;28;20420;-84
2022/12/14 06:49:22;;;;;;;8.13;5.05;;;11.90;96.60;;;;;;5114271;28;20103;-84
2022/12/14 06:51:48;;;;;;;7.10;4.97;;;11.90;96.60;;;;;;5112705;28;20027;-84
2022/12/14 06:54:15;;;;;;;7.70;5.30;;;11.90;96.60;;;;;;5113167;28;20040;-82
2022/12/14 06:56:43;;;;;;;6.88;4.38;;;11.90;96.70;;;;;;5114324;28;20110;-85
2022/12/14 06:59:09;;;;;;;8.02;4.72;;;12.00;96.80;;;;;;5114285;28;20805;-88
2022/12/14 07:01:35;;;;;;;6.50;4.68;;;12.00;96.80;;;;;;5114568;28;20074;-85
2022/12/14 07:04:01;;;;;;;7.90;5.10;;;12.00;96.70;;;;;;5112946;28;20024;-80
2022/12/14 07:06:32;;;;;;;8.02;5.20;;;12.00;96.70;;;;;;5113411;27;20024;-79
2022/12/14 07:08:59;;;;;;;7.68;5.00;;;12.10;96.90;;;;;;5114934;28;20020;-77
2022/12/14 07:11:26;;;;;;;8.18;4.90;;;12.10;96.90;;;;;;5112233;28;20023;-78
2022/12/14 07:13:53;;;;;;;6.57;4.45;;;12.10;97.00;;;;;;5113545;28;20095;-78
2022/12/14 07:16:21;;;;;;;6.75;4.90;;;12.10;96.80;;;;;;5112038;28;20039;-75
2022/12/14 07:18:47;;;;;;;6.53;4.82;;;12.10;96.90;;;;;;5111898;28;20437;-76
2022/12/14 07:21:15;;;;;;;8.10;5.47;;;12.20;96.80;;;;;;5113245;28;20027;-76
2022/12/14 07:23:42;;;;;;;7.32;4.57;;;12.20;96.90;;;;;;5112048;28;20031;-78
2022/12/14 07:26:11;;;;;;;7.50;4.60;;;12.20;96.80;;;;;;5111866;28;20035;-74
2022/12/14 07:28:37;;;;;;;6.60;4.07;;;12.20;96.80;;;;;;5111953;28;20533;-75
2022/12/14 07:31:05;;;;;;;6.63;4.22;;;12.20;96.70;;;;;;5112776;28;20047;-76
2022/12/14 07:33:31;;;;;;;9.82;4.70;;;12.30;96.70;;;;;;5111683;28;20046;-76
2022/12/14 07:36:11;;;;;;;6.80;4.15;;;12.30;97.00;;;;;;5111730;28;20020;-76
2022/12/14 07:38:39;;;;;;;7.38;4.07;;;12.30;96.00;;;;;;5113227;28;20030;-75
2022/12/14 07:41:08;;;;;;;5.63;3.50;;;12.30;96.80;;;;;;5111415;28;20356;-73
2022/12/14 07:43:35;;;;;;;6.38;3.88;;;12.30;96.80;;;;;;5111089;28;20070;-76
2022/12/14 07:46:02;;;;;;;6.90;4.30;;;12.30;96.70;;;;;;5111476;28;20020;-76
2022/12/14 07:48:28;;;;;;;11.27;4.40;;;12.40;96.80;;;;;;5111168;28;20081;-75
2022/12/14 07:50:54;;;;;;;6.18;4.50;;;12.40;96.70;;;;;;5112544;28;20016;-75
2022/12/14 07:53:20;;;;;;;8.15;4.78;;;12.40;96.70;;;;;;5115300;28;20160;-75
2022/12/14 07:55:46;;;;;;;12.35;5.80;;;12.40;96.60;;;;;;5116615;28;20048;-75
2022/12/14 07:58:11;;;;;;;9.43;4.90;;;12.40;96.50;;;;;;5116688;28;20037;-74
2022/12/14 08:00:37;;;;;;;8.25;4.60;;;12.50;96.60;;;;;;5116879;28;20024;-75
2022/12/14 08:03:03;;;;;;;8.52;4.03;;;12.50;96.60;;;;;;5115307;28;20073;-75
2022/12/14 08:05:28;;;;;;;7.05;3.75;;;12.50;96.50;;;;;;5115346;28;20023;-74
2022/12/14 08:07:54;;;;;;;8.50;3.78;;;12.50;96.50;;;;;;5116269;28;20030;-73
2022/12/14 08:10:20;;;;;;;7.45;3.65;;;12.50;96.60;;;;;;5118453;28;20069;-75
2022/12/14 08:12:49;;;;;;;9.07;4.05;;;12.50;96.60;;;;;;5118363;28;20122;-74
2022/12/14 08:15:14;;;;;;;8.18;3.75;;;12.50;96.70;;;;;;5115889;28;20046;-75
2022/12/14 08:17:40;;;;;;;8.77;4.22;;;12.50;96.60;;;;;;5116540;28;20452;-74
2022/12/14 08:20:06;;;;;;;6.50;3.67;;;12.50;96.60;;;;;;5116200;28;20046;-71
2022/12/14 08:22:32;;;;;;;6.55;3.80;;;12.60;96.40;;;;;;5114970;28;20505;-75
2022/12/14 08:24:58;;;;;;;6.85;4.20;;;12.60;96.60;;;;;;5114915;28;20110;-74
2022/12/14 08:27:23;;;;;;;5.03;3.17;;;12.60;96.70;;;;;;5114822;28;20536;-76
2022/12/14 08:29:49;;;;;;;7.03;4.28;;;12.70;96.60;;;;;;5116249;28;20387;-75
2022/12/14 08:32:15;;;;;;;9.50;3.92;;;12.70;96.50;;;;;;5116315;28;20023;-75
2022/12/14 08:34:40;;;;;;;8.50;4.28;;;12.70;96.60;;;;;;5116310;28;20030;-75
2022/12/14 08:37:06;;;;;;;11.20;3.60;;;12.70;96.60;;;;;;5114780;28;20041;-74
2022/12/14 08:39:32;;;;;;;12.30;5.25;;;12.70;96.60;;;;;;5116206;28;20018;-75
2022/12/14 08:41:57;;;;;;;11.27;5.00;;;12.70;96.70;;;;;;5115979;28;20035;-76
2022/12/14 08:44:23;;;;;;;8.35;4.10;;;12.70;96.70;;;;;;5115975;28;20549;-74
2022/12/14 08:46:49;;;;;;;11.63;4.53;;;12.70;96.70;;;;;;5115717;28;20472;-74
2022/12/14 08:49:15;;;;;;;9.60;3.72;;;12.70;96.70;;;;;;5114331;28;20024;-76
2022/12/14 08:51:40;;;;;;;7.90;4.25;;;12.70;96.80;;;;;;5114573;28;20074;-74
2022/12/14 08:54:06;;;;;;;8.45;4.72;;;12.70;96.80;;;;;;5115644;28;20044;-75
2022/12/14 08:56:32;;;;;;;9.77;4.47;;;12.60;96.80;;;;;;5114285;28;20035;-75
2022/12/14 08:58:57;;;;;;;9.27;4.15;;;12.60;96.90;;;;;;5115285;28;20030;-74
2022/12/14 09:01:28;;;;;;;6.72;4.40;;;12.50;96.90;;;;;;5115566;28;20482;-75
2022/12/14 09:03:54;;;;;;;8.52;5.10;;;12.50;97.40;;;;;;5115416;28;20016;-74
2022/12/14 09:06:28;;;;;;;7.75;4.13;;;12.50;97.00;;;;;;5114167;28;20028;-77
2022/12/14 09:08:54;;;;;;;7.05;3.80;;;12.60;97.30;;;;;;5114159;28;20035;-75
2022/12/14 09:11:21;;;;;;;5.40;3.35;;;12.60;97.20;;;;;;5115196;28;20012;-74
2022/12/14 09:13:47;;;;;;;5.82;3.50;;;12.60;97.20;;;;;;5113649;28;20032;-75
2022/12/14 09:16:16;;;;;;;6.47;3.42;;;12.60;97.40;;;;;;5113681;28;20059;-75
2022/12/14 09:18:42;;;;;;;4.75;2.92;;;12.60;97.40;;;;;;5115194;27;20024;-74
2022/12/14 09:21:08;;;;;;;6.47;3.58;;;12.60;97.30;;;;;;5113571;28;20424;-75
2022/12/14 09:23:34;;;;;;;8.38;3.70;;;12.60;97.50;;;;;;5113725;28;20023;-74
2022/12/14 09:26:05;;;;;;;7.85;3.40;;;12.60;97.40;;;;;;5114771;28;20034;-73
2022/12/14 09:28:34;;;;;;;7.18;3.70;;;12.60;97.40;;;;;;5114988;28;20016;-74
2022/12/14 09:31:03;;;;;;;7.05;3.60;;;12.60;97.60;;;;;;5115020;28;20510;-75
2022/12/14 09:33:29;;;;;;;8.25;4.20;;;12.60;97.50;;;;;;5114598;28;20023;-74
2022/12/14 09:36:27;;;;;;;9.35;4.25;;;12.60;97.50;;;;;;5114631;28;20031;-75
2022/12/14 09:38:55;;;;;;;4.43;2.70;;;12.60;97.40;;;;;;5085637;27;20403;-74
2022/12/14 09:41:32;;;;;;;7.80;3.03;;;12.60;97.70;;;;;;5114310;28;20014;-73
2022/12/14 09:44:14;;;;;;;4.85;2.80;;;12.70;97.10;;;;;;5114455;28;20125;-75
2022/12/14 09:46:49;;;;;;;4.32;2.53;;;12.70;97.70;;;;;;5114652;28;20511;-75
2022/12/14 09:49:31;;;;;;;4.55;3.00;;;12.70;97.70;;;;;;5112898;28;20055;-74
2022/12/14 09:52:00;;;;;;;4.50;2.50;;;12.70;97.30;;;;;;5114473;28;20023;-74
2022/12/14 09:54:30;;;;;;;4.03;2.28;;;12.70;97.80;;;;;;5114264;28;20031;-74
2022/12/14 09:57:00;;;;;;;6.18;2.95;;;12.70;97.80;;;;;;5114216;28;20035;-74
2022/12/14 09:59:28;;;;;;;4.57;2.20;;;12.70;97.90;;;;;;5114292;28;20034;-74
2022/12/14 10:02:11;;;;;;;5.28;2.20;;;12.80;97.90;;;;;;5112733;28;20184;-76
2022/12/14 10:04:46;;;;;;;3.83;1.70;;;12.80;97.30;;;;;;5112904;28;20046;-73
2022/12/14 10:07:17;;;;;;;5.50;2.30;;;12.80;97.40;;;;;;5114100;28;20034;-74
2022/12/14 10:09:59;;;;;;;3.25;1.80;;;12.80;98.00;;;;;;5112603;28;20402;-74
2022/12/14 10:12:40;;;;;;;6.05;2.60;;;12.90;97.40;;;;;;5114055;28;20028;-74
2022/12/14 10:15:21;;;;;;;6.40;2.60;;;12.90;97.40;;;;;;5113369;28;20076;-75
2022/12/14 10:17:59;;;;;;;6.50;3.10;;;12.90;97.90;;;;;;5113957;28;20032;-75
2022/12/14 10:20:36;;;;;;;5.07;2.67;;;12.90;97.90;;;;;;5112092;28;20511;-74
2022/12/14 10:23:03;;;;;;;8.07;3.80;;;13.00;98.00;;;;;;5113634;28;20097;-73
2022/12/14 10:25:33;;;;;;;6.03;3.83;;;13.00;98.20;;;;;;5113617;28;20030;-75
2022/12/14 10:28:16;;;;;;;8.55;5.00;;;12.90;98.20;;;;;;5114087;28;20343;-74
2022/12/14 10:30:43;;;;;;;9.88;6.03;;;12.90;97.60;;;;;;5114303;28;20141;-75
2022/12/14 10:33:23;;;;;;;12.82;6.90;;;12.90;98.20;;;;;;5115424;28;20031;-74
2022/12/14 10:36:09;;;;;;;13.82;8.15;;;12.90;98.20;;;;;;5113497;28;20480;-74
2022/12/14 10:39:04;;;;;;;11.65;8.30;;;12.90;97.90;;;;;;5111906;28;20558;-72
2022/12/14 10:42:09;;;;;;;10.60;7.93;;;12.80;98.40;;;;;;5111980;28;20029;-73
2022/12/14 10:44:37;;;;;;;12.10;7.85;;;12.80;98.20;;;;;;5100057;28;20395;-74
2022/12/14 10:47:37;;;;;;;12.75;8.07;;;12.70;98.00;;;;;;5113302;28;20089;-75
2022/12/14 10:50:18;;;;;;;11.10;7.68;;;12.80;98.50;;;;;;5085513;27;20035;-74
2022/12/14 10:52:47;;;;;;;9.50;6.80;;;12.80;98.20;;;;;;5111352;28;20056;-74
2022/12/14 10:55:32;;;;;;;10.90;6.55;;;12.70;98.50;;;;;;5112973;27;20543;-74
2022/12/14 10:57:58;;;;;;;10.88;7.18;;;12.70;98.60;;;;;;5112976;28;20034;-73
2022/12/14 11:00:24;;;;;;;13.13;7.70;;;12.70;98.60;;;;;;5113012;28;20016;-74
2022/12/14 11:02:54;;;;;;;12.00;7.85;;;12.70;98.70;;;;;;5111874;28;20051;-75
2022/12/14 11:05:29;;;;;;;17.05;8.52;;;12.70;98.60;;;;;;5112945;28;20379;-74
2022/12/14 11:07:54;;;;;;;15.95;9.15;;;12.70;98.30;;;;;;5113181;28;20028;-74
2022/12/14 11:10:26;;;;;;;12.43;8.10;;;12.70;98.60;;;;;;5112738;28;20050;-75
2022/12/14 11:13:25;;;;;;;13.02;7.90;;;12.70;98.70;;;;;;5113200;28;20030;-75
2022/12/14 11:15:51;;;;;;;10.50;7.10;;;12.60;98.60;;;;;;5078955;28;20035;-75
2022/12/14 11:18:18;;;;;;;12.85;6.70;;;12.70;98.80;;;;;;5112727;28;20484;-75
2022/12/14 11:20:56;;;;;;;9.65;6.43;;;12.70;98.70;;;;;;5112733;28;20073;-74
2022/12/14 11:23:36;;;;;;;9.82;6.47;;;12.70;99.00;;;;;;5110978;28;20072;-76
2022/12/14 11:26:28;;;;;;;10.65;6.60;;;12.70;98.70;;;;;;5111281;28;20027;-76
2022/12/14 11:28:56;;;;;;;8.85;5.82;;;12.70;99.00;;;;;;5112542;28;20103;-74
2022/12/14 11:31:38;;;;;;;8.23;5.60;;;12.80;99.20;;;;;;5111292;28;20024;-73
2022/12/14 11:34:16;;;;;;;10.43;5.30;;;12.80;99.20;;;;;;5112871;28;20050;-74
2022/12/14 11:36:42;;;;;;;7.85;5.00;;;12.90;99.20;;;;;;5112850;28;20035;-76
2022/12/14 11:39:11;;;;;;;9.07;5.38;;;12.90;99.20;;;;;;5112609;28;20466;-74
2022/12/14 11:41:40;;;;;;;8.80;5.28;;;13.00;99.20;;;;;;5111689;28;20069;-76
2022/12/14 11:44:46;;;;;;;9.70;5.45;;;13.00;99.20;;;;;;5112740;28;20359;-73
2022/12/14 11:47:27;;;;;;;7.47;5.25;;;13.10;99.00;;;;;;5109569;28;20521;-75
2022/12/14 11:49:55;;;;;;;10.95;5.40;;;13.10;99.10;;;;;;5111646;28;20139;-73
2022/12/14 11:52:36;;;;;;;12.00;5.40;;;13.10;99.30;;;;;;5112359;28;20421;-75
2022/12/14 11:55:17;;;;;;;8.95;4.63;;;13.20;99.30;;;;;;5111488;28;20479;-74
2022/12/14 11:57:54;;;;;;;7.28;4.85;;;13.20;99.10;;;;;;5112315;28;20039;-74
2022/12/14 12:00:25;;;;;;;6.75;4.50;;;13.20;99.40;;;;;;5111409;28;20031;-75
2022/12/14 12:03:05;;;;;;;8.68;4.90;;;13.20;99.30;;;;;;5113241;28;20016;-75
2022/12/14 12:05:33;;;;;;;7.07;4.20;;;13.20;99.20;;;;;;5112893;28;20032;-74
2022/12/14 12:08:01;;;;;;;7.00;3.83;;;13.30;99.50;;;;;;5112862;28;20409;-74
2022/12/14 12:10:43;;;;;;;8.77;4.28;;;13.30;99.50;;;;;;5111141;28;20506;-75
2022/12/14 12:13:34;;;;;;;6.93;3.60;;;13.40;99.50;;;;;;5111054;28;20410;-74
2022/12/14 12:16:06;;;;;;;5.47;3.17;;;13.40;99.50;;;;;;5112273;28;20032;-74
2022/12/14 12:18:37;;;;;;;5.65;3.35;;;13.40;99.30;;;;;;5110871;28;20455;-76
2022/12/14 12:21:08;;;;;;;8.30;3.55;;;13.40;99.30;;;;;;5112387;28;20023;-75
2022/12/14 12:23:40;;;;;;;6.03;3.63;;;13.40;99.50;;;;;;5110803;28;20081;-76
2022/12/14 12:26:15;;;;;;;7.43;4.03;;;13.50;99.50;;;;;;5111129;28;20340;-74
2022/12/14 12:28:48;;;;;;;6.78;3.10;;;13.50;99.60;;;;;;5112285;28;20524;-75
2022/12/14 12:31:21;;;;;;;6.13;2.67;;;13.50;99.70;;;;;;5112497;28;20023;-75
2022/12/14 12:34:01;;;;;;;5.70;3.20;;;13.50;99.70;;;;;;5112019;28;20031;-74
2022/12/14 12:36:31;;;;;;;5.45;3.25;;;13.50;99.80;;;;;;5111182;28;20363;-74
2022/12/14 12:39:04;;;;;;;7.10;3.42;;;13.50;99.70;;;;;;5114975;28;20107;-74
2022/12/14 12:41:40;;;;;;;7.65;4.30;;;13.50;99.80;;;;;;5115275;28;20069;-74
2022/12/14 12:44:20;;;;;;;6.95;4.22;;;13.50;99.80;;;;;;5116054;28;20031;-74
2022/12/14 12:47:06;;;;;;;7.03;4.40;;;13.60;99.60;;;;;;5114476;28;20111;-75
2022/12/14 12:49:32;;;;;;;11.30;5.65;;;13.50;99.80;;;;;;5115768;28;20115;-74
2022/12/14 12:52:14;;;;;;;8.40;5.70;;;13.50;99.80;;;;;;5116611;27;20016;-74
2022/12/14 12:55:05;;;;;;;9.82;6.43;;;13.50;99.90;;;;;;5116536;28;20031;-73
2022/12/14 12:57:39;;;;;;;10.02;6.75;;;13.50;99.70;;;;;;5114152;28;20201;-75
2022/12/14 13:00:06;;;;;;;10.07;7.47;;;13.40;99.90;;;;;;5114511;28;20028;-73
2022/12/14 13:02:41;;;;;;;13.15;7.93;;;13.30;99.90;;;;;;5114286;28;20155;-75
2022/12/14 13:05:12;;;;;;;9.98;7.80;;;13.30;99.90;;;;;;5115390;28;20483;-74
2022/12/14 13:07:45;;;;;;;20.65;8.48;;;13.30;99.90;;;;;;5131242;27;20019;-73
2022/12/14 13:10:23;;;;;;;13.75;8.70;;;13.30;99.90;;;;;;5114263;28;20027;-74
2022/12/14 13:12:54;;;;;;;11.70;8.90;;;13.30;99.80;;;;;;5115105;28;20023;-76
2022/12/14 13:15:25;;;;;;;13.88;9.35;;;13.10;99.90;;;;;;5114081;28;20016;-76
2022/12/14 13:18:24;;;;;;;10.40;8.35;;;13.00;99.70;;;;;;5115257;28;20051;-76